sensor_id;sensor_type;location;lat;lon;timestamp;P1;durP1;ratioP1;P2;durP2;ratioP2
43606;SDS011;29197;44.788;10.366;2023-06-10T00:00:00;8.88;;;7.30;;
43606;SDS011;29197;44.788;10.366;2023-06-10T00:02:51;7.97;;;7.10;;
43606;SDS011;29197;44.788;10.366;2023-06-10T00:05:42;7.65;;;6.60;;
43606;SDS011;29197;44.788;10.366;2023-06-10T00:08:30;8.68;;;6.30;;
43606;SDS011;29197;44.788;10.366;2023-06-10T00:11:19;10.90;;;5.75;;
43606;SDS011;29197;44.788;10.366;2023-06-10T00:14:08;7.40;;;4.30;;
43606;SDS011;29197;44.788;10.366;2023-06-10T00:16:57;6.18;;;4.35;;
43606;SDS011;29197;44.788;10.366;2023-06-10T00:19:46;6.78;;;3.60;;
43606;SDS011;29197;44.788;10.366;2023-06-10T00:22:36;3.85;;;3.33;;
43606;SDS011;29197;44.788;10.366;2023-06-10T00:25:26;4.32;;;3.30;;
43606;SDS011;29197;44.788;10.366;2023-06-10T00:28:15;6.45;;;3.28;;
43606;SDS011;29197;44.788;10.366;2023-06-10T00:31:03;5.63;;;3.33;;
43606;SDS011;29197;44.788;10.366;2023-06-10T00:33:52;5.97;;;3.20;;
43606;SDS011;29197;44.788;10.366;2023-06-10T00:36:41;7.05;;;2.97;;
43606;SDS011;29197;44.788;10.366;2023-06-10T00:39:31;3.15;;;2.40;;
43606;SDS011;29197;44.788;10.366;2023-06-10T00:42:20;5.97;;;2.60;;
43606;SDS011;29197;44.788;10.366;2023-06-10T00:45:10;6.57;;;3.10;;
43606;SDS011;29197;44.788;10.366;2023-06-10T00:47:59;5.20;;;2.75;;
43606;SDS011;29197;44.788;10.366;2023-06-10T00:50:48;4.10;;;3.10;;
43606;SDS011;29197;44.788;10.366;2023-06-10T00:53:37;8.43;;;2.88;;
43606;SDS011;29197;44.788;10.366;2023-06-10T00:56:29;7.28;;;2.55;;
43606;SDS011;29197;44.788;10.366;2023-06-10T00:59:18;9.90;;;2.85;;
43606;SDS011;29197;44.788;10.366;2023-06-10T01:02:06;2.92;;;2.25;;
43606;SDS011;29197;44.788;10.366;2023-06-10T01:04:56;3.15;;;2.20;;
43606;SDS011;29197;44.788;10.366;2023-06-10T01:07:46;8.68;;;2.50;;
43606;SDS011;29197;44.788;10.366;2023-06-10T01:10:45;7.22;;;2.90;;
43606;SDS011;29197;44.788;10.366;2023-06-10T01:13:37;7.63;;;2.53;;
43606;SDS011;29197;44.788;10.366;2023-06-10T01:16:28;4.80;;;2.55;;
43606;SDS011;29197;44.788;10.366;2023-06-10T01:19:17;8.25;;;2.72;;
43606;SDS011;29197;44.788;10.366;2023-06-10T01:22:07;7.05;;;2.70;;
43606;SDS011;29197;44.788;10.366;2023-06-10T01:24:57;3.65;;;2.13;;
43606;SDS011;29197;44.788;10.366;2023-06-10T01:27:46;3.42;;;2.10;;
43606;SDS011;29197;44.788;10.366;2023-06-10T01:30:39;3.95;;;2.17;;
43606;SDS011;29197;44.788;10.366;2023-06-10T01:33:42;6.35;;;2.35;;
43606;SDS011;29197;44.788;10.366;2023-06-10T01:36:34;4.90;;;2.53;;
43606;SDS011;29197;44.788;10.366;2023-06-10T01:39:26;4.15;;;2.10;;
43606;SDS011;29197;44.788;10.366;2023-06-10T01:42:16;6.10;;;2.78;;
43606;SDS011;29197;44.788;10.366;2023-06-10T01:45:05;3.70;;;2.28;;
43606;SDS011;29197;44.788;10.366;2023-06-10T01:47:55;7.03;;;3.03;;
43606;SDS011;29197;44.788;10.366;2023-06-10T01:50:44;13.10;;;3.28;;
43606;SDS011;29197;44.788;10.366;2023-06-10T01:53:32;5.63;;;2.97;;
43606;SDS011;29197;44.788;10.366;2023-06-10T01:56:23;7.35;;;3.25;;
43606;SDS011;29197;44.788;10.366;2023-06-10T01:59:11;6.55;;;3.30;;
43606;SDS011;29197;44.788;10.366;2023-06-10T02:02:00;8.10;;;3.15;;
43606;SDS011;29197;44.788;10.366;2023-06-10T02:04:48;8.52;;;3.45;;
43606;SDS011;29197;44.788;10.366;2023-06-10T02:07:37;6.88;;;3.33;;
43606;SDS011;29197;44.788;10.366;2023-06-10T02:10:25;4.93;;;2.92;;
43606;SDS011;29197;44.788;10.366;2023-06-10T02:13:15;5.38;;;2.90;;
43606;SDS011;29197;44.788;10.366;2023-06-10T02:16:04;3.00;;;2.58;;
43606;SDS011;29197;44.788;10.366;2023-06-10T02:18:53;6.78;;;3.22;;
43606;SDS011;29197;44.788;10.366;2023-06-10T02:21:42;8.35;;;2.72;;
43606;SDS011;29197;44.788;10.366;2023-06-10T02:24:31;4.15;;;2.78;;
43606;SDS011;29197;44.788;10.366;2023-06-10T02:27:20;6.22;;;2.47;;
43606;SDS011;29197;44.788;10.366;2023-06-10T02:30:11;4.38;;;3.10;;
43606;SDS011;29197;44.788;10.366;2023-06-10T02:33:01;7.30;;;3.53;;
43606;SDS011;29197;44.788;10.366;2023-06-10T02:35:49;3.95;;;2.65;;
43606;SDS011;29197;44.788;10.366;2023-06-10T02:38:38;7.28;;;3.00;;
43606;SDS011;29197;44.788;10.366;2023-06-10T02:41:27;7.93;;;2.90;;
43606;SDS011;29197;44.788;10.366;2023-06-10T02:44:16;4.40;;;2.60;;
43606;SDS011;29197;44.788;10.366;2023-06-10T02:47:07;5.72;;;2.75;;
43606;SDS011;29197;44.788;10.366;2023-06-10T02:49:56;5.32;;;2.60;;
43606;SDS011;29197;44.788;10.366;2023-06-10T02:52:44;5.68;;;2.83;;
43606;SDS011;29197;44.788;10.366;2023-06-10T02:55:33;7.60;;;2.85;;
43606;SDS011;29197;44.788;10.366;2023-06-10T02:58:22;5.63;;;3.42;;
43606;SDS011;29197;44.788;10.366;2023-06-10T03:01:10;5.93;;;3.60;;
43606;SDS011;29197;44.788;10.366;2023-06-10T03:04:01;4.45;;;2.90;;
43606;SDS011;29197;44.788;10.366;2023-06-10T03:06:50;3.78;;;2.70;;
43606;SDS011;29197;44.788;10.366;2023-06-10T03:09:38;3.97;;;2.95;;
43606;SDS011;29197;44.788;10.366;2023-06-10T03:12:31;3.10;;;2.80;;
43606;SDS011;29197;44.788;10.366;2023-06-10T03:15:19;7.35;;;2.70;;
43606;SDS011;29197;44.788;10.366;2023-06-10T03:18:08;5.07;;;2.58;;
43606;SDS011;29197;44.788;10.366;2023-06-10T03:20:58;6.45;;;3.85;;
43606;SDS011;29197;44.788;10.366;2023-06-10T03:23:47;8.35;;;3.10;;
43606;SDS011;29197;44.788;10.366;2023-06-10T03:26:35;5.10;;;3.72;;
43606;SDS011;29197;44.788;10.366;2023-06-10T03:29:24;6.55;;;2.75;;
43606;SDS011;29197;44.788;10.366;2023-06-10T03:32:13;6.68;;;3.22;;
43606;SDS011;29197;44.788;10.366;2023-06-10T03:35:01;4.40;;;2.58;;
43606;SDS011;29197;44.788;10.366;2023-06-10T03:37:51;6.80;;;3.53;;
43606;SDS011;29197;44.788;10.366;2023-06-10T03:40:40;4.93;;;2.88;;
43606;SDS011;29197;44.788;10.366;2023-06-10T03:43:28;6.63;;;3.08;;
43606;SDS011;29197;44.788;10.366;2023-06-10T03:46:17;6.80;;;3.03;;
43606;SDS011;29197;44.788;10.366;2023-06-10T03:49:06;4.18;;;2.78;;
43606;SDS011;29197;44.788;10.366;2023-06-10T03:51:56;5.50;;;3.03;;
43606;SDS011;29197;44.788;10.366;2023-06-10T03:54:46;6.07;;;2.95;;
43606;SDS011;29197;44.788;10.366;2023-06-10T03:57:34;7.43;;;3.47;;
43606;SDS011;29197;44.788;10.366;2023-06-10T04:00:23;4.88;;;3.47;;
43606;SDS011;29197;44.788;10.366;2023-06-10T04:03:11;8.18;;;4.30;;
43606;SDS011;29197;44.788;10.366;2023-06-10T04:06:02;7.35;;;4.18;;
43606;SDS011;29197;44.788;10.366;2023-06-10T04:08:51;5.65;;;3.92;;
43606;SDS011;29197;44.788;10.366;2023-06-10T04:11:41;5.55;;;3.50;;
43606;SDS011;29197;44.788;10.366;2023-06-10T04:14:30;7.00;;;4.28;;
43606;SDS011;29197;44.788;10.366;2023-06-10T04:17:19;5.18;;;4.13;;
43606;SDS011;29197;44.788;10.366;2023-06-10T04:20:07;4.60;;;3.20;;
43606;SDS011;29197;44.788;10.366;2023-06-10T04:22:57;6.43;;;3.25;;
43606;SDS011;29197;44.788;10.366;2023-06-10T04:25:46;5.03;;;3.75;;
43606;SDS011;29197;44.788;10.366;2023-06-10T04:28:36;9.27;;;3.90;;
43606;SDS011;29197;44.788;10.366;2023-06-10T04:31:24;6.75;;;4.25;;
43606;SDS011;29197;44.788;10.366;2023-06-10T04:34:13;5.10;;;3.70;;
43606;SDS011;29197;44.788;10.366;2023-06-10T04:37:02;7.22;;;3.88;;
43606;SDS011;29197;44.788;10.366;2023-06-10T04:39:50;7.40;;;3.95;;
43606;SDS011;29197;44.788;10.366;2023-06-10T04:42:39;7.72;;;4.63;;
43606;SDS011;29197;44.788;10.366;2023-06-10T04:45:29;5.10;;;3.63;;
43606;SDS011;29197;44.788;10.366;2023-06-10T04:48:17;4.88;;;3.33;;
43606;SDS011;29197;44.788;10.366;2023-06-10T04:51:06;6.00;;;4.38;;
43606;SDS011;29197;44.788;10.366;2023-06-10T04:53:54;6.07;;;3.72;;
43606;SDS011;29197;44.788;10.366;2023-06-10T04:56:43;9.75;;;5.93;;
43606;SDS011;29197;44.788;10.366;2023-06-10T04:59:32;7.25;;;5.55;;
43606;SDS011;29197;44.788;10.366;2023-06-10T05:02:25;9.00;;;4.15;;
43606;SDS011;29197;44.788;10.366;2023-06-10T05:05:14;5.72;;;4.95;;
43606;SDS011;29197;44.788;10.366;2023-06-10T05:08:03;6.40;;;3.97;;
43606;SDS011;29197;44.788;10.366;2023-06-10T05:10:54;5.00;;;4.25;;
43606;SDS011;29197;44.788;10.366;2023-06-10T05:13:43;5.63;;;3.63;;
43606;SDS011;29197;44.788;10.366;2023-06-10T05:16:32;6.72;;;4.35;;
43606;SDS011;29197;44.788;10.366;2023-06-10T05:19:22;5.85;;;3.90;;
43606;SDS011;29197;44.788;10.366;2023-06-10T05:22:12;6.18;;;3.50;;
43606;SDS011;29197;44.788;10.366;2023-06-10T05:25:03;6.70;;;4.07;;
43606;SDS011;29197;44.788;10.366;2023-06-10T05:27:53;7.05;;;4.10;;
43606;SDS011;29197;44.788;10.366;2023-06-10T05:30:42;5.03;;;4.03;;
43606;SDS011;29197;44.788;10.366;2023-06-10T05:33:31;10.05;;;4.35;;
43606;SDS011;29197;44.788;10.366;2023-06-10T05:36:21;5.55;;;3.33;;
43606;SDS011;29197;44.788;10.366;2023-06-10T05:39:12;8.15;;;4.18;;
43606;SDS011;29197;44.788;10.366;2023-06-10T05:42:00;6.85;;;4.38;;
43606;SDS011;29197;44.788;10.366;2023-06-10T05:44:49;6.70;;;3.90;;
43606;SDS011;29197;44.788;10.366;2023-06-10T05:47:38;7.90;;;4.03;;
43606;SDS011;29197;44.788;10.366;2023-06-10T05:50:26;6.45;;;3.17;;
43606;SDS011;29197;44.788;10.366;2023-06-10T05:53:16;4.97;;;3.30;;
43606;SDS011;29197;44.788;10.366;2023-06-10T05:56:05;6.88;;;3.60;;
43606;SDS011;29197;44.788;10.366;2023-06-10T05:58:54;8.98;;;4.22;;
43606;SDS011;29197;44.788;10.366;2023-06-10T06:01:42;4.72;;;3.25;;
43606;SDS011;29197;44.788;10.366;2023-06-10T06:04:31;6.50;;;3.25;;
43606;SDS011;29197;44.788;10.366;2023-06-10T06:07:19;3.67;;;2.85;;
43606;SDS011;29197;44.788;10.366;2023-06-10T06:10:10;6.15;;;2.85;;
43606;SDS011;29197;44.788;10.366;2023-06-10T06:12:58;4.70;;;3.00;;
43606;SDS011;29197;44.788;10.366;2023-06-10T06:15:49;5.10;;;2.80;;
43606;SDS011;29197;44.788;10.366;2023-06-10T06:18:37;4.88;;;2.72;;
43606;SDS011;29197;44.788;10.366;2023-06-10T06:21:26;4.57;;;2.72;;
43606;SDS011;29197;44.788;10.366;2023-06-10T06:24:15;4.07;;;2.40;;
43606;SDS011;29197;44.788;10.366;2023-06-10T06:27:05;7.35;;;2.40;;
43606;SDS011;29197;44.788;10.366;2023-06-10T06:29:54;8.82;;;3.35;;
43606;SDS011;29197;44.788;10.366;2023-06-10T06:32:43;4.55;;;2.53;;
43606;SDS011;29197;44.788;10.366;2023-06-10T06:35:32;5.80;;;2.85;;
43606;SDS011;29197;44.788;10.366;2023-06-10T06:38:21;5.15;;;3.00;;
43606;SDS011;29197;44.788;10.366;2023-06-10T06:41:09;5.15;;;2.78;;
43606;SDS011;29197;44.788;10.366;2023-06-10T06:43:59;4.60;;;2.72;;
43606;SDS011;29197;44.788;10.366;2023-06-10T06:46:48;5.60;;;2.42;;
43606;SDS011;29197;44.788;10.366;2023-06-10T06:49:36;4.20;;;2.20;;
43606;SDS011;29197;44.788;10.366;2023-06-10T06:52:25;5.72;;;2.03;;
43606;SDS011;29197;44.788;10.366;2023-06-10T06:55:14;3.15;;;1.63;;
43606;SDS011;29197;44.788;10.366;2023-06-10T06:58:02;1.83;;;1.73;;
43606;SDS011;29197;44.788;10.366;2023-06-10T07:00:52;6.43;;;1.65;;
43606;SDS011;29197;44.788;10.366;2023-06-10T07:03:41;2.28;;;2.00;;
43606;SDS011;29197;44.788;10.366;2023-06-10T07:06:29;4.55;;;1.88;;
43606;SDS011;29197;44.788;10.366;2023-06-10T07:09:20;2.33;;;1.55;;
43606;SDS011;29197;44.788;10.366;2023-06-10T07:12:09;2.90;;;1.30;;
43606;SDS011;29197;44.788;10.366;2023-06-10T07:14:58;3.15;;;1.65;;
43606;SDS011;29197;44.788;10.366;2023-06-10T07:17:48;3.58;;;2.38;;
43606;SDS011;29197;44.788;10.366;2023-06-10T07:20:37;12.00;;;2.75;;
43606;SDS011;29197;44.788;10.366;2023-06-10T07:23:25;4.57;;;1.80;;
43606;SDS011;29197;44.788;10.366;2023-06-10T07:26:14;4.28;;;1.90;;
43606;SDS011;29197;44.788;10.366;2023-06-10T07:29:03;2.97;;;1.70;;
43606;SDS011;29197;44.788;10.366;2023-06-10T07:31:51;4.60;;;2.10;;
43606;SDS011;29197;44.788;10.366;2023-06-10T07:34:41;4.72;;;1.73;;
43606;SDS011;29197;44.788;10.366;2023-06-10T07:37:30;3.90;;;1.90;;
43606;SDS011;29197;44.788;10.366;2023-06-10T07:40:18;5.13;;;2.30;;
43606;SDS011;29197;44.788;10.366;2023-06-10T07:43:07;4.88;;;2.00;;
43606;SDS011;29197;44.788;10.366;2023-06-10T07:45:55;2.55;;;1.58;;
43606;SDS011;29197;44.788;10.366;2023-06-10T07:48:44;2.33;;;1.63;;
43606;SDS011;29197;44.788;10.366;2023-06-10T07:51:34;3.75;;;1.77;;
43606;SDS011;29197;44.788;10.366;2023-06-10T07:54:23;6.70;;;2.22;;
43606;SDS011;29197;44.788;10.366;2023-06-10T07:57:15;6.43;;;2.25;;
43606;SDS011;29197;44.788;10.366;2023-06-10T08:00:04;2.83;;;2.00;;
43606;SDS011;29197;44.788;10.366;2023-06-10T08:02:54;6.35;;;2.10;;
43606;SDS011;29197;44.788;10.366;2023-06-10T08:05:43;5.28;;;2.53;;
43606;SDS011;29197;44.788;10.366;2023-06-10T08:08:33;4.13;;;2.20;;
43606;SDS011;29197;44.788;10.366;2023-06-10T08:11:26;3.95;;;2.40;;
43606;SDS011;29197;44.788;10.366;2023-06-10T08:14:16;3.17;;;1.70;;
43606;SDS011;29197;44.788;10.366;2023-06-10T08:17:05;3.00;;;1.35;;
43606;SDS011;29197;44.788;10.366;2023-06-10T08:19:53;1.90;;;1.50;;
43606;SDS011;29197;44.788;10.366;2023-06-10T08:22:42;4.00;;;1.85;;
43606;SDS011;29197;44.788;10.366;2023-06-10T08:25:32;4.78;;;1.55;;
43606;SDS011;29197;44.788;10.366;2023-06-10T08:28:20;7.38;;;2.30;;
43606;SDS011;29197;44.788;10.366;2023-06-10T08:31:09;5.32;;;2.15;;
43606;SDS011;29197;44.788;10.366;2023-06-10T08:33:57;3.50;;;1.92;;
43606;SDS011;29197;44.788;10.366;2023-06-10T08:36:47;4.22;;;1.80;;
43606;SDS011;29197;44.788;10.366;2023-06-10T08:39:39;2.65;;;2.30;;
43606;SDS011;29197;44.788;10.366;2023-06-10T08:42:32;3.78;;;2.50;;
43606;SDS011;29197;44.788;10.366;2023-06-10T08:45:22;5.05;;;2.63;;
43606;SDS011;29197;44.788;10.366;2023-06-10T08:48:12;3.90;;;2.45;;
43606;SDS011;29197;44.788;10.366;2023-06-10T08:51:01;5.63;;;3.08;;
43606;SDS011;29197;44.788;10.366;2023-06-10T08:53:53;5.95;;;2.60;;
43606;SDS011;29197;44.788;10.366;2023-06-10T08:56:43;5.25;;;2.90;;
43606;SDS011;29197;44.788;10.366;2023-06-10T08:59:33;3.15;;;2.40;;
43606;SDS011;29197;44.788;10.366;2023-06-10T09:02:22;3.88;;;2.40;;
43606;SDS011;29197;44.788;10.366;2023-06-10T09:05:12;3.00;;;2.30;;
43606;SDS011;29197;44.788;10.366;2023-06-10T09:08:02;3.80;;;2.05;;
43606;SDS011;29197;44.788;10.366;2023-06-10T09:10:51;5.07;;;2.70;;
43606;SDS011;29197;44.788;10.366;2023-06-10T09:13:40;4.03;;;2.13;;
43606;SDS011;29197;44.788;10.366;2023-06-10T09:16:30;3.72;;;2.33;;
43606;SDS011;29197;44.788;10.366;2023-06-10T09:19:19;6.60;;;2.95;;
43606;SDS011;29197;44.788;10.366;2023-06-10T09:22:08;8.27;;;3.03;;
43606;SDS011;29197;44.788;10.366;2023-06-10T09:25:02;5.45;;;2.60;;
43606;SDS011;29197;44.788;10.366;2023-06-10T09:27:52;2.78;;;2.08;;
43606;SDS011;29197;44.788;10.366;2023-06-10T09:30:42;3.50;;;2.28;;
43606;SDS011;29197;44.788;10.366;2023-06-10T09:33:31;9.00;;;3.28;;
43606;SDS011;29197;44.788;10.366;2023-06-10T09:36:23;5.95;;;2.35;;
43606;SDS011;29197;44.788;10.366;2023-06-10T09:39:15;4.72;;;3.00;;
43606;SDS011;29197;44.788;10.366;2023-06-10T09:42:11;5.00;;;2.83;;
43606;SDS011;29197;44.788;10.366;2023-06-10T09:45:05;4.88;;;2.80;;
43606;SDS011;29197;44.788;10.366;2023-06-10T09:47:55;6.95;;;2.72;;
43606;SDS011;29197;44.788;10.366;2023-06-10T09:50:45;4.63;;;2.60;;
43606;SDS011;29197;44.788;10.366;2023-06-10T09:53:34;2.92;;;2.63;;
43606;SDS011;29197;44.788;10.366;2023-06-10T09:56:32;4.32;;;2.60;;
43606;SDS011;29197;44.788;10.366;2023-06-10T09:59:28;4.10;;;2.33;;
43606;SDS011;29197;44.788;10.366;2023-06-10T10:02:18;4.25;;;2.65;;
43606;SDS011;29197;44.788;10.366;2023-06-10T10:05:07;3.92;;;2.85;;
43606;SDS011;29197;44.788;10.366;2023-06-10T10:07:58;5.30;;;2.70;;
43606;SDS011;29197;44.788;10.366;2023-06-10T10:10:46;6.03;;;3.70;;
43606;SDS011;29197;44.788;10.366;2023-06-10T10:13:35;5.13;;;3.30;;
43606;SDS011;29197;44.788;10.366;2023-06-10T10:16:35;6.88;;;3.80;;
43606;SDS011;29197;44.788;10.366;2023-06-10T10:19:28;9.52;;;4.43;;
43606;SDS011;29197;44.788;10.366;2023-06-10T10:22:19;4.80;;;3.60;;
43606;SDS011;29197;44.788;10.366;2023-06-10T10:25:16;6.22;;;4.20;;
43606;SDS011;29197;44.788;10.366;2023-06-10T10:28:09;6.22;;;3.95;;
43606;SDS011;29197;44.788;10.366;2023-06-10T10:30:59;6.05;;;3.78;;
43606;SDS011;29197;44.788;10.366;2023-06-10T10:33:57;7.38;;;4.03;;
43606;SDS011;29197;44.788;10.366;2023-06-10T10:36:47;9.82;;;5.28;;
43606;SDS011;29197;44.788;10.366;2023-06-10T10:39:37;7.25;;;4.50;;
43606;SDS011;29197;44.788;10.366;2023-06-10T10:42:29;6.93;;;4.30;;
43606;SDS011;29197;44.788;10.366;2023-06-10T10:45:18;6.40;;;3.78;;
43606;SDS011;29197;44.788;10.366;2023-06-10T10:48:09;8.70;;;5.57;;
43606;SDS011;29197;44.788;10.366;2023-06-10T10:50:59;6.47;;;4.07;;
43606;SDS011;29197;44.788;10.366;2023-06-10T10:57:10;6.72;;;4.13;;
43606;SDS011;29197;44.788;10.366;2023-06-10T11:00:01;6.18;;;3.60;;
43606;SDS011;29197;44.788;10.366;2023-06-10T11:02:51;5.40;;;3.92;;
43606;SDS011;29197;44.788;10.366;2023-06-10T11:05:44;6.25;;;5.45;;
43606;SDS011;29197;44.788;10.366;2023-06-10T11:08:47;9.52;;;6.15;;
43606;SDS011;29197;44.788;10.366;2023-06-10T11:11:37;5.82;;;4.15;;
43606;SDS011;29197;44.788;10.366;2023-06-10T11:14:37;6.30;;;3.92;;
43606;SDS011;29197;44.788;10.366;2023-06-10T11:20:52;6.32;;;5.03;;
43606;SDS011;29197;44.788;10.366;2023-06-10T11:23:42;6.72;;;5.13;;
43606;SDS011;29197;44.788;10.366;2023-06-10T11:26:31;7.50;;;4.25;;
43606;SDS011;29197;44.788;10.366;2023-06-10T11:29:21;9.07;;;4.85;;
43606;SDS011;29197;44.788;10.366;2023-06-10T11:32:10;4.45;;;2.90;;
43606;SDS011;29197;44.788;10.366;2023-06-10T11:34:59;5.85;;;4.13;;
43606;SDS011;29197;44.788;10.366;2023-06-10T11:37:52;5.35;;;3.95;;
43606;SDS011;29197;44.788;10.366;2023-06-10T11:40:40;6.10;;;4.85;;
43606;SDS011;29197;44.788;10.366;2023-06-10T11:43:34;6.63;;;4.10;;
43606;SDS011;29197;44.788;10.366;2023-06-10T11:46:24;7.00;;;5.95;;
43606;SDS011;29197;44.788;10.366;2023-06-10T11:49:14;8.38;;;6.45;;
43606;SDS011;29197;44.788;10.366;2023-06-10T11:52:04;7.00;;;5.68;;
43606;SDS011;29197;44.788;10.366;2023-06-10T11:54:54;5.70;;;4.25;;
43606;SDS011;29197;44.788;10.366;2023-06-10T11:57:43;8.52;;;6.38;;
43606;SDS011;29197;44.788;10.366;2023-06-10T12:00:32;11.90;;;6.47;;
43606;SDS011;29197;44.788;10.366;2023-06-10T12:03:20;7.88;;;5.65;;
43606;SDS011;29197;44.788;10.366;2023-06-10T12:06:10;11.38;;;6.38;;
43606;SDS011;29197;44.788;10.366;2023-06-10T12:08:58;12.50;;;7.97;;
43606;SDS011;29197;44.788;10.366;2023-06-10T12:12:09;8.23;;;6.30;;
43606;SDS011;29197;44.788;10.366;2023-06-10T12:14:59;11.68;;;7.45;;
43606;SDS011;29197;44.788;10.366;2023-06-10T12:17:49;11.20;;;8.05;;
43606;SDS011;29197;44.788;10.366;2023-06-10T12:20:39;13.10;;;9.10;;
43606;SDS011;29197;44.788;10.366;2023-06-10T12:23:29;12.32;;;7.30;;
43606;SDS011;29197;44.788;10.366;2023-06-10T12:26:18;13.05;;;8.95;;
43606;SDS011;29197;44.788;10.366;2023-06-10T12:29:18;11.38;;;8.75;;
43606;SDS011;29197;44.788;10.366;2023-06-10T12:32:09;10.40;;;6.65;;
43606;SDS011;29197;44.788;10.366;2023-06-10T12:35:02;9.18;;;6.00;;
43606;SDS011;29197;44.788;10.366;2023-06-10T12:37:55;13.75;;;8.07;;
43606;SDS011;29197;44.788;10.366;2023-06-10T12:40:46;8.45;;;6.50;;
43606;SDS011;29197;44.788;10.366;2023-06-10T12:43:34;8.73;;;6.38;;
43606;SDS011;29197;44.788;10.366;2023-06-10T12:46:24;7.72;;;6.13;;
43606;SDS011;29197;44.788;10.366;2023-06-10T12:49:18;11.35;;;5.43;;
43606;SDS011;29197;44.788;10.366;2023-06-10T12:52:07;5.72;;;4.30;;
43606;SDS011;29197;44.788;10.366;2023-06-10T12:54:56;7.28;;;4.65;;
43606;SDS011;29197;44.788;10.366;2023-06-10T12:57:48;7.72;;;4.82;;
43606;SDS011;29197;44.788;10.366;2023-06-10T13:00:37;11.43;;;6.00;;
43606;SDS011;29197;44.788;10.366;2023-06-10T13:03:27;6.75;;;4.88;;
43606;SDS011;29197;44.788;10.366;2023-06-10T13:06:16;6.60;;;4.05;;
43606;SDS011;29197;44.788;10.366;2023-06-10T13:09:06;5.07;;;3.88;;
43606;SDS011;29197;44.788;10.366;2023-06-10T13:11:54;8.82;;;4.45;;
43606;SDS011;29197;44.788;10.366;2023-06-10T13:14:43;6.95;;;3.25;;
43606;SDS011;29197;44.788;10.366;2023-06-10T13:17:31;6.80;;;5.10;;
43606;SDS011;29197;44.788;10.366;2023-06-10T13:20:22;4.47;;;4.05;;
43606;SDS011;29197;44.788;10.366;2023-06-10T13:23:11;8.60;;;4.50;;
43606;SDS011;29197;44.788;10.366;2023-06-10T13:26:00;5.28;;;3.80;;
43606;SDS011;29197;44.788;10.366;2023-06-10T13:28:50;7.43;;;4.78;;
43606;SDS011;29197;44.788;10.366;2023-06-10T13:31:39;14.68;;;6.30;;
43606;SDS011;29197;44.788;10.366;2023-06-10T13:34:29;7.20;;;4.95;;
43606;SDS011;29197;44.788;10.366;2023-06-10T13:37:19;10.25;;;5.47;;
43606;SDS011;29197;44.788;10.366;2023-06-10T13:40:08;6.40;;;4.20;;
43606;SDS011;29197;44.788;10.366;2023-06-10T13:42:57;9.35;;;4.75;;
43606;SDS011;29197;44.788;10.366;2023-06-10T13:45:46;10.23;;;5.65;;
43606;SDS011;29197;44.788;10.366;2023-06-10T13:48:35;7.00;;;4.10;;
43606;SDS011;29197;44.788;10.366;2023-06-10T13:51:24;5.85;;;4.07;;
43606;SDS011;29197;44.788;10.366;2023-06-10T13:54:14;6.47;;;3.97;;
43606;SDS011;29197;44.788;10.366;2023-06-10T13:57:03;6.20;;;3.90;;
43606;SDS011;29197;44.788;10.366;2023-06-10T13:59:52;9.18;;;4.45;;
43606;SDS011;29197;44.788;10.366;2023-06-10T14:02:42;4.65;;;4.10;;
43606;SDS011;29197;44.788;10.366;2023-06-10T14:05:31;5.20;;;4.25;;
43606;SDS011;29197;44.788;10.366;2023-06-10T14:08:20;8.27;;;4.90;;
43606;SDS011;29197;44.788;10.366;2023-06-10T14:11:10;5.95;;;4.25;;
43606;SDS011;29197;44.788;10.366;2023-06-10T14:13:59;7.30;;;4.10;;
43606;SDS011;29197;44.788;10.366;2023-06-10T14:16:47;4.22;;;2.95;;
43606;SDS011;29197;44.788;10.366;2023-06-10T14:19:36;7.47;;;2.92;;
43606;SDS011;29197;44.788;10.366;2023-06-10T14:22:26;3.30;;;2.58;;
43606;SDS011;29197;44.788;10.366;2023-06-10T14:25:15;5.82;;;3.35;;
43606;SDS011;29197;44.788;10.366;2023-06-10T14:28:05;10.45;;;3.80;;
43606;SDS011;29197;44.788;10.366;2023-06-10T14:30:54;5.65;;;3.30;;
43606;SDS011;29197;44.788;10.366;2023-06-10T14:33:44;7.47;;;3.20;;
43606;SDS011;29197;44.788;10.366;2023-06-10T14:36:33;6.63;;;3.72;;
43606;SDS011;29197;44.788;10.366;2023-06-10T14:39:21;3.25;;;2.50;;
43606;SDS011;29197;44.788;10.366;2023-06-10T14:42:10;4.97;;;3.33;;
43606;SDS011;29197;44.788;10.366;2023-06-10T14:45:00;5.13;;;2.85;;
43606;SDS011;29197;44.788;10.366;2023-06-10T14:47:49;3.85;;;2.65;;
43606;SDS011;29197;44.788;10.366;2023-06-10T14:50:37;5.13;;;2.70;;
43606;SDS011;29197;44.788;10.366;2023-06-10T14:53:27;4.78;;;2.35;;
43606;SDS011;29197;44.788;10.366;2023-06-10T14:56:15;6.20;;;2.97;;
43606;SDS011;29197;44.788;10.366;2023-06-10T14:59:04;2.88;;;2.10;;
43606;SDS011;29197;44.788;10.366;2023-06-10T15:01:54;5.32;;;2.72;;
43606;SDS011;29197;44.788;10.366;2023-06-10T15:04:42;4.13;;;2.70;;
43606;SDS011;29197;44.788;10.366;2023-06-10T15:07:31;6.43;;;2.92;;
43606;SDS011;29197;44.788;10.366;2023-06-10T15:10:20;4.07;;;2.30;;
43606;SDS011;29197;44.788;10.366;2023-06-10T15:13:09;3.72;;;2.40;;
43606;SDS011;29197;44.788;10.366;2023-06-10T15:15:58;3.83;;;2.30;;
43606;SDS011;29197;44.788;10.366;2023-06-10T15:18:51;4.18;;;3.17;;
43606;SDS011;29197;44.788;10.366;2023-06-10T15:21:39;3.65;;;2.13;;
43606;SDS011;29197;44.788;10.366;2023-06-10T15:24:28;4.97;;;2.30;;
43606;SDS011;29197;44.788;10.366;2023-06-10T15:27:16;3.90;;;2.55;;
43606;SDS011;29197;44.788;10.366;2023-06-10T15:30:05;5.03;;;2.20;;
43606;SDS011;29197;44.788;10.366;2023-06-10T15:32:54;6.00;;;2.90;;
43606;SDS011;29197;44.788;10.366;2023-06-10T15:35:45;6.60;;;2.90;;
43606;SDS011;29197;44.788;10.366;2023-06-10T15:38:34;6.53;;;3.25;;
43606;SDS011;29197;44.788;10.366;2023-06-10T15:41:23;5.13;;;3.00;;
43606;SDS011;29197;44.788;10.366;2023-06-10T15:44:12;7.72;;;3.30;;
43606;SDS011;29197;44.788;10.366;2023-06-10T15:47:00;5.03;;;2.88;;
43606;SDS011;29197;44.788;10.366;2023-06-10T15:49:49;7.55;;;3.33;;
43606;SDS011;29197;44.788;10.366;2023-06-10T15:52:40;5.90;;;3.75;;
43606;SDS011;29197;44.788;10.366;2023-06-10T15:55:29;5.22;;;3.75;;
43606;SDS011;29197;44.788;10.366;2023-06-10T15:58:17;8.50;;;4.65;;
43606;SDS011;29197;44.788;10.366;2023-06-10T16:01:06;4.03;;;3.53;;
43606;SDS011;29197;44.788;10.366;2023-06-10T16:03:56;5.30;;;4.30;;
43606;SDS011;29197;44.788;10.366;2023-06-10T16:06:44;6.82;;;4.30;;
43606;SDS011;29197;44.788;10.366;2023-06-10T16:09:36;5.68;;;4.20;;
43606;SDS011;29197;44.788;10.366;2023-06-10T16:12:25;5.30;;;3.50;;
43606;SDS011;29197;44.788;10.366;2023-06-10T16:15:13;5.78;;;3.85;;
43606;SDS011;29197;44.788;10.366;2023-06-10T16:18:02;4.82;;;3.88;;
43606;SDS011;29197;44.788;10.366;2023-06-10T16:20:51;5.60;;;4.10;;
43606;SDS011;29197;44.788;10.366;2023-06-10T16:23:39;8.68;;;3.78;;
43606;SDS011;29197;44.788;10.366;2023-06-10T16:26:29;6.20;;;4.40;;
43606;SDS011;29197;44.788;10.366;2023-06-10T16:29:18;6.65;;;4.18;;
43606;SDS011;29197;44.788;10.366;2023-06-10T16:32:07;4.30;;;3.90;;
43606;SDS011;29197;44.788;10.366;2023-06-10T16:34:55;4.63;;;3.65;;
43606;SDS011;29197;44.788;10.366;2023-06-10T16:37:44;4.88;;;4.38;;
43606;SDS011;29197;44.788;10.366;2023-06-10T16:40:33;5.80;;;4.07;;
43606;SDS011;29197;44.788;10.366;2023-06-10T16:43:23;4.93;;;3.50;;
43606;SDS011;29197;44.788;10.366;2023-06-10T16:46:13;7.65;;;5.03;;
43606;SDS011;29197;44.788;10.366;2023-06-10T16:49:02;4.63;;;4.13;;
43606;SDS011;29197;44.788;10.366;2023-06-10T16:51:51;7.55;;;5.43;;